Riverside, CA (92509)

3:38 AM PDT on March 25, 2017 (GMT -0700)
Indian Hills | | Change Station

Elev 1070 ft 33.99 °N, 117.45 °W | Updated 10 minutes ago

Mostly Cloudy
Mostly Cloudy
52.4 °F
Feels Like 52.4 °F
N
0.0
Wind Variable Wind from SSW
Gusts 0.0 mph

Today
High -- | Low -- °F
--% Chance of Precip.
Yesterday
High -- | Low -- °F
Precip. -- in
Pressure 30.09 in
Visibility 10.0 miles
Clouds Few 9000 ft
Mostly Cloudy 11000 ft
Dew Point 46 °F
Humidity 80%
Rainfall 0.00 in
Snow Depth Not available.
6:46 AM 7:05 PM
Waning Crescent, 9% visible
METAR KRAL 250953Z AUTO 11004KT 10SM -RA FEW090 BKN110 12/08 A3013 RMK AO2 RAB47 SLP190 P0000 T01170083
Pressure 30.09 in
Visibility 10.0 miles
Clouds Few 9000 ft
Mostly Cloudy 11000 ft
Dew Point 46 °F
Humidity 80%
Rainfall 0.00 in
Snow Depth Not available.
6:46 AM 7:05 PM
Waning Crescent, 9% visible
METAR KRAL 250953Z AUTO 11004KT 10SM -RA FEW090 BKN110 12/08 A3013 RMK AO2 RAB47 SLP190 P0000 T01170083

Get Severe Weather Alerts

Thanks for signing up!

Be on the lookout for a verification email in your inbox.

You'll start receiving the daily forecast at 8 AM.

×

10-Day Weather Forecast

Almanac

Astronomy

Mar. 25, 2017 Rise Set
Actual Time
Civil Twilight
Nautical Twilight
Astronomical Twilight
Moon
Length of Visible Light
Length of Day
Tomorrow will be .
, % of the Moon is Illuminated

Today's Extremes

State Highs State Lows

Community

WunderPhotos

Upload Photos

1,962,540 photos uploaded!

WunderBlog® & News

Nearby

Air Quality

  Air Quality AQ Index Pollutant
Not available.

Snow Depth

Station Depth Elevation

Earthquake Activity

City Distance Mag. Time & Date
Minimum magnitude displayed is 2.5.

Earthquake Activity

City Distance Mag. Time & Date
Minimum magnitude displayed is 2.5.

Coastal Water Temperatures

Place Temperature

Stations

Nearby Weather Stations

Station Location Temp. Windchill Dew Point Humidity Wind Precip. Elev Updated Type
                   

Watches & Warnings

There are currently no watches in effect.